<?xml version="1.0" encoding="UTF-8" standalone="no" ?>
<gpx xmlns="http://www.topografix.com/GPX/1/1" xmlns:xsi="http://www.w3.org/2001/XMLSchema-instance" xsi:schemaLocation="http://www.topografix.com/GPX/1/1 http://www.topografix.com/GPX/1/1/gpx.xsd" version="1.1" creator="VisuGPX - https://www.visugpx.com">
  <metadata>
    <name>Soum d'Ostès depuis Gaillagos.</name>
    <desc><![CDATA[Soum d'Ostès depuis Gaillagos en raquettes, retour en boucle.]]></desc>
  </metadata>
  <trk>
    <name><![CDATA[Soum d'Ostès depuis Gaillagos.]]></name>
    <trkseg>
      <trkpt lat="42.98118" lon="-0.17491">
        <ele>912</ele>
        <time>2019-01-26T09:36:39+01:00</time>
      </trkpt>
      <trkpt lat="42.98126" lon="-0.17521">
        <ele>914</ele>
        <time>2019-01-26T09:37:00+01:00</time>
      </trkpt>
      <trkpt lat="42.9812" lon="-0.17551">
        <ele>914</ele>
        <time>2019-01-26T09:37:17+01:00</time>
      </trkpt>
      <trkpt lat="42.98121" lon="-0.17582">
        <ele>916</ele>
        <time>2019-01-26T09:37:34+01:00</time>
      </trkpt>
      <trkpt lat="42.98134" lon="-0.17607">
        <ele>920</ele>
        <time>2019-01-26T09:38:05+01:00</time>
      </trkpt>
      <trkpt lat="42.98149" lon="-0.17631">
        <ele>924</ele>
        <time>2019-01-26T09:38:23+01:00</time>
      </trkpt>
      <trkpt lat="42.98156" lon="-0.17661">
        <ele>927</ele>
        <time>2019-01-26T09:38:42+01:00</time>
      </trkpt>
      <trkpt lat="42.9818" lon="-0.17666">
        <ele>932</ele>
        <time>2019-01-26T09:39:06+01:00</time>
      </trkpt>
      <trkpt lat="42.98196" lon="-0.17643">
        <ele>933</ele>
        <time>2019-01-26T09:39:29+01:00</time>
      </trkpt>
      <trkpt lat="42.98216" lon="-0.17628">
        <ele>937</ele>
        <time>2019-01-26T09:40:03+01:00</time>
      </trkpt>
      <trkpt lat="42.98239" lon="-0.17623">
        <ele>941</ele>
        <time>2019-01-26T09:40:26+01:00</time>
      </trkpt>
      <trkpt lat="42.98261" lon="-0.17634">
        <ele>944</ele>
        <time>2019-01-26T09:40:44+01:00</time>
      </trkpt>
      <trkpt lat="42.98279" lon="-0.17654">
        <ele>948</ele>
        <time>2019-01-26T09:41:04+01:00</time>
      </trkpt>
      <trkpt lat="42.98297" lon="-0.17674">
        <ele>953</ele>
        <time>2019-01-26T09:41:28+01:00</time>
      </trkpt>
      <trkpt lat="42.98289" lon="-0.17704">
        <ele>955</ele>
        <time>2019-01-26T09:41:51+01:00</time>
      </trkpt>
      <trkpt lat="42.98282" lon="-0.17734">
        <ele>957</ele>
        <time>2019-01-26T09:42:20+01:00</time>
      </trkpt>
      <trkpt lat="42.98268" lon="-0.1776">
        <ele>958</ele>
        <time>2019-01-26T09:42:42+01:00</time>
      </trkpt>
      <trkpt lat="42.98258" lon="-0.17787">
        <ele>961</ele>
        <time>2019-01-26T09:43:02+01:00</time>
      </trkpt>
      <trkpt lat="42.98255" lon="-0.17818">
        <ele>966</ele>
        <time>2019-01-26T09:43:25+01:00</time>
      </trkpt>
      <trkpt lat="42.98256" lon="-0.17849">
        <ele>971</ele>
        <time>2019-01-26T09:43:45+01:00</time>
      </trkpt>
      <trkpt lat="42.98256" lon="-0.1788">
        <ele>975</ele>
        <time>2019-01-26T09:44:12+01:00</time>
      </trkpt>
      <trkpt lat="42.98266" lon="-0.17908">
        <ele>979</ele>
        <time>2019-01-26T09:44:33+01:00</time>
      </trkpt>
      <trkpt lat="42.98277" lon="-0.17936">
        <ele>985</ele>
        <time>2019-01-26T09:44:55+01:00</time>
      </trkpt>
      <trkpt lat="42.98294" lon="-0.17959">
        <ele>989</ele>
        <time>2019-01-26T09:45:17+01:00</time>
      </trkpt>
      <trkpt lat="42.98306" lon="-0.17987">
        <ele>993</ele>
        <time>2019-01-26T09:45:42+01:00</time>
      </trkpt>
      <trkpt lat="42.98314" lon="-0.18017">
        <ele>995</ele>
        <time>2019-01-26T09:46:04+01:00</time>
      </trkpt>
      <trkpt lat="42.98322" lon="-0.18046">
        <ele>997</ele>
        <time>2019-01-26T09:46:26+01:00</time>
      </trkpt>
      <trkpt lat="42.9833" lon="-0.18076">
        <ele>999</ele>
        <time>2019-01-26T09:46:49+01:00</time>
      </trkpt>
      <trkpt lat="42.98341" lon="-0.18103">
        <ele>1002</ele>
        <time>2019-01-26T09:47:37+01:00</time>
      </trkpt>
      <trkpt lat="42.98353" lon="-0.18131">
        <ele>1006</ele>
        <time>2019-01-26T09:48:01+01:00</time>
      </trkpt>
      <trkpt lat="42.98372" lon="-0.18151">
        <ele>1010</ele>
        <time>2019-01-26T09:48:30+01:00</time>
      </trkpt>
      <trkpt lat="42.98391" lon="-0.18168">
        <ele>1014</ele>
        <time>2019-01-26T09:48:47+01:00</time>
      </trkpt>
      <trkpt lat="42.98409" lon="-0.18188">
        <ele>1019</ele>
        <time>2019-01-26T09:49:12+01:00</time>
      </trkpt>
      <trkpt lat="42.98431" lon="-0.18199">
        <ele>1022</ele>
        <time>2019-01-26T09:49:33+01:00</time>
      </trkpt>
      <trkpt lat="42.98451" lon="-0.18215">
        <ele>1026</ele>
        <time>2019-01-26T09:49:51+01:00</time>
      </trkpt>
      <trkpt lat="42.98464" lon="-0.1824">
        <ele>1031</ele>
        <time>2019-01-26T09:50:19+01:00</time>
      </trkpt>
      <trkpt lat="42.98473" lon="-0.18269">
        <ele>1036</ele>
        <time>2019-01-26T09:50:41+01:00</time>
      </trkpt>
      <trkpt lat="42.98488" lon="-0.18293">
        <ele>1040</ele>
        <time>2019-01-26T09:51:08+01:00</time>
      </trkpt>
      <trkpt lat="42.98506" lon="-0.18314">
        <ele>1041</ele>
        <time>2019-01-26T09:51:30+01:00</time>
      </trkpt>
      <trkpt lat="42.98522" lon="-0.18337">
        <ele>1044</ele>
        <time>2019-01-26T09:51:52+01:00</time>
      </trkpt>
      <trkpt lat="42.98537" lon="-0.18361">
        <ele>1047</ele>
        <time>2019-01-26T09:52:21+01:00</time>
      </trkpt>
      <trkpt lat="42.98552" lon="-0.18385">
        <ele>1050</ele>
        <time>2019-01-26T09:52:41+01:00</time>
      </trkpt>
      <trkpt lat="42.98563" lon="-0.18413">
        <ele>1056</ele>
        <time>2019-01-26T09:53:01+01:00</time>
      </trkpt>
      <trkpt lat="42.98586" lon="-0.18409">
        <ele>1062</ele>
        <time>2019-01-26T09:53:48+01:00</time>
      </trkpt>
      <trkpt lat="42.9859" lon="-0.18378">
        <ele>1063</ele>
        <time>2019-01-26T10:00:47+01:00</time>
      </trkpt>
      <trkpt lat="42.98592" lon="-0.18345">
        <ele>1063</ele>
        <time>2019-01-26T10:01:14+01:00</time>
      </trkpt>
      <trkpt lat="42.98595" lon="-0.18313">
        <ele>1063</ele>
        <time>2019-01-26T10:01:42+01:00</time>
      </trkpt>
      <trkpt lat="42.98597" lon="-0.18282">
        <ele>1061</ele>
        <time>2019-01-26T10:02:05+01:00</time>
      </trkpt>
      <trkpt lat="42.98595" lon="-0.18251">
        <ele>1059</ele>
        <time>2019-01-26T10:02:33+01:00</time>
      </trkpt>
      <trkpt lat="42.98596" lon="-0.18219">
        <ele>1059</ele>
        <time>2019-01-26T10:03:13+01:00</time>
      </trkpt>
      <trkpt lat="42.98608" lon="-0.18193">
        <ele>1062</ele>
        <time>2019-01-26T10:03:43+01:00</time>
      </trkpt>
      <trkpt lat="42.98619" lon="-0.18167">
        <ele>1064</ele>
        <time>2019-01-26T10:03:47+01:00</time>
      </trkpt>
      <trkpt lat="42.98631" lon="-0.1814">
        <ele>1066</ele>
        <time>2019-01-26T10:04:23+01:00</time>
      </trkpt>
      <trkpt lat="42.98645" lon="-0.18115">
        <ele>1070</ele>
        <time>2019-01-26T10:04:50+01:00</time>
      </trkpt>
      <trkpt lat="42.98656" lon="-0.18087">
        <ele>1075</ele>
        <time>2019-01-26T10:05:26+01:00</time>
      </trkpt>
      <trkpt lat="42.98669" lon="-0.18113">
        <ele>1077</ele>
        <time>2019-01-26T10:06:20+01:00</time>
      </trkpt>
      <trkpt lat="42.98676" lon="-0.18143">
        <ele>1078</ele>
        <time>2019-01-26T10:07:07+01:00</time>
      </trkpt>
      <trkpt lat="42.98675" lon="-0.18175">
        <ele>1080</ele>
        <time>2019-01-26T10:07:36+01:00</time>
      </trkpt>
      <trkpt lat="42.98674" lon="-0.18206">
        <ele>1082</ele>
        <time>2019-01-26T10:08:00+01:00</time>
      </trkpt>
      <trkpt lat="42.9868" lon="-0.18236">
        <ele>1084</ele>
        <time>2019-01-26T10:08:23+01:00</time>
      </trkpt>
      <trkpt lat="42.98688" lon="-0.18265">
        <ele>1088</ele>
        <time>2019-01-26T10:08:47+01:00</time>
      </trkpt>
      <trkpt lat="42.98695" lon="-0.18296">
        <ele>1091</ele>
        <time>2019-01-26T10:09:24+01:00</time>
      </trkpt>
      <trkpt lat="42.98705" lon="-0.18323">
        <ele>1094</ele>
        <time>2019-01-26T10:09:57+01:00</time>
      </trkpt>
      <trkpt lat="42.98714" lon="-0.18352">
        <ele>1097</ele>
        <time>2019-01-26T10:10:27+01:00</time>
      </trkpt>
      <trkpt lat="42.98695" lon="-0.18369">
        <ele>1096</ele>
        <time>2019-01-26T10:11:06+01:00</time>
      </trkpt>
      <trkpt lat="42.98683" lon="-0.18395">
        <ele>1098</ele>
        <time>2019-01-26T10:12:27+01:00</time>
      </trkpt>
      <trkpt lat="42.98673" lon="-0.18424">
        <ele>1100</ele>
        <time>2019-01-26T10:12:58+01:00</time>
      </trkpt>
      <trkpt lat="42.98668" lon="-0.18454">
        <ele>1102</ele>
        <time>2019-01-26T10:13:56+01:00</time>
      </trkpt>
      <trkpt lat="42.98677" lon="-0.18483">
        <ele>1106</ele>
        <time>2019-01-26T10:14:28+01:00</time>
      </trkpt>
      <trkpt lat="42.98687" lon="-0.18511">
        <ele>1108</ele>
        <time>2019-01-26T10:14:57+01:00</time>
      </trkpt>
      <trkpt lat="42.98703" lon="-0.18534">
        <ele>1112</ele>
        <time>2019-01-26T10:15:31+01:00</time>
      </trkpt>
      <trkpt lat="42.98703" lon="-0.18566">
        <ele>1113</ele>
        <time>2019-01-26T10:16:21+01:00</time>
      </trkpt>
      <trkpt lat="42.98707" lon="-0.18596">
        <ele>1115</ele>
        <time>2019-01-26T10:16:50+01:00</time>
      </trkpt>
      <trkpt lat="42.9872" lon="-0.18623">
        <ele>1118</ele>
        <time>2019-01-26T10:17:20+01:00</time>
      </trkpt>
      <trkpt lat="42.98711" lon="-0.18651">
        <ele>1119</ele>
        <time>2019-01-26T10:18:13+01:00</time>
      </trkpt>
      <trkpt lat="42.98693" lon="-0.18671">
        <ele>1122</ele>
        <time>2019-01-26T10:19:08+01:00</time>
      </trkpt>
      <trkpt lat="42.98676" lon="-0.18692">
        <ele>1123</ele>
        <time>2019-01-26T10:21:20+01:00</time>
      </trkpt>
      <trkpt lat="42.98661" lon="-0.18716">
        <ele>1123</ele>
        <time>2019-01-26T10:21:47+01:00</time>
      </trkpt>
      <trkpt lat="42.98653" lon="-0.18746">
        <ele>1126</ele>
        <time>2019-01-26T10:22:14+01:00</time>
      </trkpt>
      <trkpt lat="42.98642" lon="-0.18773">
        <ele>1126</ele>
        <time>2019-01-26T10:22:47+01:00</time>
      </trkpt>
      <trkpt lat="42.9866" lon="-0.18755">
        <ele>1130</ele>
        <time>2019-01-26T10:24:14+01:00</time>
      </trkpt>
      <trkpt lat="42.98674" lon="-0.18729">
        <ele>1129</ele>
        <time>2019-01-26T10:24:40+01:00</time>
      </trkpt>
      <trkpt lat="42.98692" lon="-0.18711">
        <ele>1130</ele>
        <time>2019-01-26T10:25:12+01:00</time>
      </trkpt>
      <trkpt lat="42.98689" lon="-0.18742">
        <ele>1135</ele>
        <time>2019-01-26T10:25:44+01:00</time>
      </trkpt>
      <trkpt lat="42.98685" lon="-0.18773">
        <ele>1139</ele>
        <time>2019-01-26T10:26:51+01:00</time>
      </trkpt>
      <trkpt lat="42.98677" lon="-0.18802">
        <ele>1141</ele>
        <time>2019-01-26T10:27:17+01:00</time>
      </trkpt>
      <trkpt lat="42.98673" lon="-0.18832">
        <ele>1146</ele>
        <time>2019-01-26T10:27:49+01:00</time>
      </trkpt>
      <trkpt lat="42.98666" lon="-0.18862">
        <ele>1149</ele>
        <time>2019-01-26T10:28:21+01:00</time>
      </trkpt>
      <trkpt lat="42.98661" lon="-0.18893">
        <ele>1151</ele>
        <time>2019-01-26T10:32:01+01:00</time>
      </trkpt>
      <trkpt lat="42.98663" lon="-0.18923">
        <ele>1155</ele>
        <time>2019-01-26T10:32:27+01:00</time>
      </trkpt>
      <trkpt lat="42.98665" lon="-0.18955">
        <ele>1158</ele>
        <time>2019-01-26T10:32:54+01:00</time>
      </trkpt>
      <trkpt lat="42.98667" lon="-0.18986">
        <ele>1160</ele>
        <time>2019-01-26T10:33:21+01:00</time>
      </trkpt>
      <trkpt lat="42.98684" lon="-0.18967">
        <ele>1165</ele>
        <time>2019-01-26T10:36:02+01:00</time>
      </trkpt>
      <trkpt lat="42.98698" lon="-0.18942">
        <ele>1168</ele>
        <time>2019-01-26T10:37:11+01:00</time>
      </trkpt>
      <trkpt lat="42.98721" lon="-0.18952">
        <ele>1173</ele>
        <time>2019-01-26T10:37:52+01:00</time>
      </trkpt>
      <trkpt lat="42.98719" lon="-0.18983">
        <ele>1176</ele>
        <time>2019-01-26T10:38:31+01:00</time>
      </trkpt>
      <trkpt lat="42.98723" lon="-0.19014">
        <ele>1179</ele>
        <time>2019-01-26T10:39:32+01:00</time>
      </trkpt>
      <trkpt lat="42.98723" lon="-0.19045">
        <ele>1182</ele>
        <time>2019-01-26T10:40:04+01:00</time>
      </trkpt>
      <trkpt lat="42.98713" lon="-0.19073">
        <ele>1182</ele>
        <time>2019-01-26T10:40:35+01:00</time>
      </trkpt>
      <trkpt lat="42.98736" lon="-0.19064">
        <ele>1187</ele>
        <time>2019-01-26T10:41:57+01:00</time>
      </trkpt>
      <trkpt lat="42.98757" lon="-0.1905">
        <ele>1190</ele>
        <time>2019-01-26T10:42:26+01:00</time>
      </trkpt>
      <trkpt lat="42.98759" lon="-0.19082">
        <ele>1194</ele>
        <time>2019-01-26T10:43:22+01:00</time>
      </trkpt>
      <trkpt lat="42.9876" lon="-0.19113">
        <ele>1199</ele>
        <time>2019-01-26T10:44:11+01:00</time>
      </trkpt>
      <trkpt lat="42.98757" lon="-0.19146">
        <ele>1202</ele>
        <time>2019-01-26T10:44:44+01:00</time>
      </trkpt>
      <trkpt lat="42.98778" lon="-0.19134">
        <ele>1203</ele>
        <time>2019-01-26T10:46:18+01:00</time>
      </trkpt>
      <trkpt lat="42.98802" lon="-0.19134">
        <ele>1203</ele>
        <time>2019-01-26T10:46:47+01:00</time>
      </trkpt>
      <trkpt lat="42.98824" lon="-0.19139">
        <ele>1207</ele>
        <time>2019-01-26T10:47:23+01:00</time>
      </trkpt>
      <trkpt lat="42.98847" lon="-0.19131">
        <ele>1209</ele>
        <time>2019-01-26T10:47:53+01:00</time>
      </trkpt>
      <trkpt lat="42.98869" lon="-0.19139">
        <ele>1212</ele>
        <time>2019-01-26T10:48:25+01:00</time>
      </trkpt>
      <trkpt lat="42.98889" lon="-0.19156">
        <ele>1216</ele>
        <time>2019-01-26T10:49:00+01:00</time>
      </trkpt>
      <trkpt lat="42.98905" lon="-0.19181">
        <ele>1220</ele>
        <time>2019-01-26T10:49:41+01:00</time>
      </trkpt>
      <trkpt lat="42.98918" lon="-0.19206">
        <ele>1222</ele>
        <time>2019-01-26T10:50:36+01:00</time>
      </trkpt>
      <trkpt lat="42.9894" lon="-0.19215">
        <ele>1226</ele>
        <time>2019-01-26T10:51:26+01:00</time>
      </trkpt>
      <trkpt lat="42.98962" lon="-0.19205">
        <ele>1229</ele>
        <time>2019-01-26T10:52:03+01:00</time>
      </trkpt>
      <trkpt lat="42.98981" lon="-0.19188">
        <ele>1232</ele>
        <time>2019-01-26T10:52:34+01:00</time>
      </trkpt>
      <trkpt lat="42.98997" lon="-0.19165">
        <ele>1234</ele>
        <time>2019-01-26T10:53:19+01:00</time>
      </trkpt>
      <trkpt lat="42.99017" lon="-0.19147">
        <ele>1235</ele>
        <time>2019-01-26T10:54:07+01:00</time>
      </trkpt>
      <trkpt lat="42.99033" lon="-0.19124">
        <ele>1236</ele>
        <time>2019-01-26T10:54:42+01:00</time>
      </trkpt>
      <trkpt lat="42.99054" lon="-0.19111">
        <ele>1241</ele>
        <time>2019-01-26T10:55:14+01:00</time>
      </trkpt>
      <trkpt lat="42.99075" lon="-0.19097">
        <ele>1245</ele>
        <time>2019-01-26T10:56:19+01:00</time>
      </trkpt>
      <trkpt lat="42.99093" lon="-0.19076">
        <ele>1249</ele>
        <time>2019-01-26T10:56:56+01:00</time>
      </trkpt>
      <trkpt lat="42.99104" lon="-0.19048">
        <ele>1252</ele>
        <time>2019-01-26T10:57:30+01:00</time>
      </trkpt>
      <trkpt lat="42.99115" lon="-0.19021">
        <ele>1253</ele>
        <time>2019-01-26T10:58:23+01:00</time>
      </trkpt>
      <trkpt lat="42.99136" lon="-0.19008">
        <ele>1257</ele>
        <time>2019-01-26T10:59:17+01:00</time>
      </trkpt>
      <trkpt lat="42.99155" lon="-0.18991">
        <ele>1261</ele>
        <time>2019-01-26T10:59:50+01:00</time>
      </trkpt>
      <trkpt lat="42.99169" lon="-0.18968">
        <ele>1264</ele>
        <time>2019-01-26T11:00:25+01:00</time>
      </trkpt>
      <trkpt lat="42.99166" lon="-0.18937">
        <ele>1266</ele>
        <time>2019-01-26T11:01:32+01:00</time>
      </trkpt>
      <trkpt lat="42.99163" lon="-0.18906">
        <ele>1268</ele>
        <time>2019-01-26T11:02:07+01:00</time>
      </trkpt>
      <trkpt lat="42.99169" lon="-0.18876">
        <ele>1273</ele>
        <time>2019-01-26T11:02:35+01:00</time>
      </trkpt>
      <trkpt lat="42.99162" lon="-0.18847">
        <ele>1274</ele>
        <time>2019-01-26T11:03:06+01:00</time>
      </trkpt>
      <trkpt lat="42.99164" lon="-0.18816">
        <ele>1277</ele>
        <time>2019-01-26T11:03:47+01:00</time>
      </trkpt>
      <trkpt lat="42.99164" lon="-0.18785">
        <ele>1279</ele>
        <time>2019-01-26T11:04:16+01:00</time>
      </trkpt>
      <trkpt lat="42.99172" lon="-0.18756">
        <ele>1281</ele>
        <time>2019-01-26T11:04:43+01:00</time>
      </trkpt>
      <trkpt lat="42.99185" lon="-0.18729">
        <ele>1285</ele>
        <time>2019-01-26T11:05:50+01:00</time>
      </trkpt>
      <trkpt lat="42.99195" lon="-0.18701">
        <ele>1287</ele>
        <time>2019-01-26T11:06:20+01:00</time>
      </trkpt>
      <trkpt lat="42.99213" lon="-0.1868">
        <ele>1291</ele>
        <time>2019-01-26T11:06:46+01:00</time>
      </trkpt>
      <trkpt lat="42.99225" lon="-0.18655">
        <ele>1293</ele>
        <time>2019-01-26T11:07:28+01:00</time>
      </trkpt>
      <trkpt lat="42.99239" lon="-0.18629">
        <ele>1295</ele>
        <time>2019-01-26T11:08:18+01:00</time>
      </trkpt>
      <trkpt lat="42.99252" lon="-0.18603">
        <ele>1298</ele>
        <time>2019-01-26T11:08:48+01:00</time>
      </trkpt>
      <trkpt lat="42.99256" lon="-0.18573">
        <ele>1298</ele>
        <time>2019-01-26T11:10:51+01:00</time>
      </trkpt>
      <trkpt lat="42.99271" lon="-0.18598">
        <ele>1304</ele>
        <time>2019-01-26T11:11:24+01:00</time>
      </trkpt>
      <trkpt lat="42.99271" lon="-0.1863">
        <ele>1304</ele>
        <time>2019-01-26T11:11:53+01:00</time>
      </trkpt>
      <trkpt lat="42.99283" lon="-0.18656">
        <ele>1307</ele>
        <time>2019-01-26T11:12:47+01:00</time>
      </trkpt>
      <trkpt lat="42.99296" lon="-0.18682">
        <ele>1312</ele>
        <time>2019-01-26T11:13:14+01:00</time>
      </trkpt>
      <trkpt lat="42.99296" lon="-0.18714">
        <ele>1313</ele>
        <time>2019-01-26T11:17:08+01:00</time>
      </trkpt>
      <trkpt lat="42.99306" lon="-0.18742">
        <ele>1317</ele>
        <time>2019-01-26T11:17:35+01:00</time>
      </trkpt>
      <trkpt lat="42.99316" lon="-0.18771">
        <ele>1321</ele>
        <time>2019-01-26T11:18:01+01:00</time>
      </trkpt>
      <trkpt lat="42.99327" lon="-0.18798">
        <ele>1323</ele>
        <time>2019-01-26T11:19:11+01:00</time>
      </trkpt>
      <trkpt lat="42.99334" lon="-0.18828">
        <ele>1326</ele>
        <time>2019-01-26T11:19:37+01:00</time>
      </trkpt>
      <trkpt lat="42.99338" lon="-0.1886">
        <ele>1328</ele>
        <time>2019-01-26T11:21:17+01:00</time>
      </trkpt>
      <trkpt lat="42.9934" lon="-0.18891">
        <ele>1332</ele>
        <time>2019-01-26T11:21:47+01:00</time>
      </trkpt>
      <trkpt lat="42.99342" lon="-0.18923">
        <ele>1333</ele>
        <time>2019-01-26T11:22:11+01:00</time>
      </trkpt>
      <trkpt lat="42.99349" lon="-0.18952">
        <ele>1337</ele>
        <time>2019-01-26T11:22:37+01:00</time>
      </trkpt>
      <trkpt lat="42.99354" lon="-0.18983">
        <ele>1339</ele>
        <time>2019-01-26T11:23:20+01:00</time>
      </trkpt>
      <trkpt lat="42.99348" lon="-0.19014">
        <ele>1341</ele>
        <time>2019-01-26T11:23:46+01:00</time>
      </trkpt>
      <trkpt lat="42.99344" lon="-0.19044">
        <ele>1343</ele>
        <time>2019-01-26T11:24:20+01:00</time>
      </trkpt>
      <trkpt lat="42.99343" lon="-0.19075">
        <ele>1348</ele>
        <time>2019-01-26T11:25:07+01:00</time>
      </trkpt>
      <trkpt lat="42.9933" lon="-0.19101">
        <ele>1345</ele>
        <time>2019-01-26T11:25:32+01:00</time>
      </trkpt>
      <trkpt lat="42.9933" lon="-0.19132">
        <ele>1349</ele>
        <time>2019-01-26T11:25:58+01:00</time>
      </trkpt>
      <trkpt lat="42.9933" lon="-0.19163">
        <ele>1354</ele>
        <time>2019-01-26T11:26:23+01:00</time>
      </trkpt>
      <trkpt lat="42.99325" lon="-0.19194">
        <ele>1357</ele>
        <time>2019-01-26T11:26:54+01:00</time>
      </trkpt>
      <trkpt lat="42.99309" lon="-0.19216">
        <ele>1356</ele>
        <time>2019-01-26T11:27:22+01:00</time>
      </trkpt>
      <trkpt lat="42.99299" lon="-0.19244">
        <ele>1358</ele>
        <time>2019-01-26T11:27:52+01:00</time>
      </trkpt>
      <trkpt lat="42.99307" lon="-0.19274">
        <ele>1361</ele>
        <time>2019-01-26T11:29:19+01:00</time>
      </trkpt>
      <trkpt lat="42.99326" lon="-0.19293">
        <ele>1364</ele>
        <time>2019-01-26T11:29:57+01:00</time>
      </trkpt>
      <trkpt lat="42.99348" lon="-0.19304">
        <ele>1368</ele>
        <time>2019-01-26T11:30:55+01:00</time>
      </trkpt>
      <trkpt lat="42.99359" lon="-0.19277">
        <ele>1374</ele>
        <time>2019-01-26T11:32:01+01:00</time>
      </trkpt>
      <trkpt lat="42.99365" lon="-0.19247">
        <ele>1378</ele>
        <time>2019-01-26T11:32:57+01:00</time>
      </trkpt>
      <trkpt lat="42.99402" lon="-0.19245">
        <ele>1383</ele>
        <time>2019-01-26T11:33:46+01:00</time>
      </trkpt>
      <trkpt lat="42.99395" lon="-0.19215">
        <ele>1383</ele>
        <time>2019-01-26T11:34:32+01:00</time>
      </trkpt>
      <trkpt lat="42.99402" lon="-0.19185">
        <ele>1384</ele>
        <time>2019-01-26T11:35:06+01:00</time>
      </trkpt>
      <trkpt lat="42.9942" lon="-0.19164">
        <ele>1387</ele>
        <time>2019-01-26T11:35:49+01:00</time>
      </trkpt>
      <trkpt lat="42.99439" lon="-0.19149">
        <ele>1390</ele>
        <time>2019-01-26T11:36:19+01:00</time>
      </trkpt>
      <trkpt lat="42.99456" lon="-0.19128">
        <ele>1393</ele>
        <time>2019-01-26T11:36:52+01:00</time>
      </trkpt>
      <trkpt lat="42.99467" lon="-0.19101">
        <ele>1396</ele>
        <time>2019-01-26T11:37:39+01:00</time>
      </trkpt>
      <trkpt lat="42.99487" lon="-0.19084">
        <ele>1401</ele>
        <time>2019-01-26T11:38:28+01:00</time>
      </trkpt>
      <trkpt lat="42.99505" lon="-0.19065">
        <ele>1407</ele>
        <time>2019-01-26T11:39:10+01:00</time>
      </trkpt>
      <trkpt lat="42.99522" lon="-0.19046">
        <ele>1412</ele>
        <time>2019-01-26T11:40:04+01:00</time>
      </trkpt>
      <trkpt lat="42.99544" lon="-0.19036">
        <ele>1419</ele>
        <time>2019-01-26T11:41:07+01:00</time>
      </trkpt>
      <trkpt lat="42.99562" lon="-0.19017">
        <ele>1425</ele>
        <time>2019-01-26T11:42:16+01:00</time>
      </trkpt>
      <trkpt lat="42.9958" lon="-0.18997">
        <ele>1432</ele>
        <time>2019-01-26T11:43:17+01:00</time>
      </trkpt>
      <trkpt lat="42.99607" lon="-0.18992">
        <ele>1443</ele>
        <time>2019-01-26T11:43:42+01:00</time>
      </trkpt>
      <trkpt lat="42.9961" lon="-0.18989">
        <ele>1444</ele>
        <time>2019-01-26T11:44:38+01:00</time>
      </trkpt>
      <trkpt lat="42.99608" lon="-0.18989">
        <ele>1443</ele>
        <time>2019-01-26T11:44:42+01:00</time>
      </trkpt>
      <trkpt lat="42.9961" lon="-0.18991">
        <ele>1444</ele>
        <time>2019-01-26T11:44:46+01:00</time>
      </trkpt>
      <trkpt lat="42.9961" lon="-0.18991">
        <ele>1444</ele>
        <time>2019-01-26T11:44:51+01:00</time>
      </trkpt>
      <trkpt lat="42.9961" lon="-0.18991">
        <ele>1444</ele>
        <time>2019-01-26T11:44:57+01:00</time>
      </trkpt>
      <trkpt lat="42.99612" lon="-0.18991">
        <ele>1445</ele>
        <time>2019-01-26T11:45:01+01:00</time>
      </trkpt>
      <trkpt lat="42.99615" lon="-0.18992">
        <ele>1446</ele>
        <time>2019-01-28T10:18:24+01:00</time>
      </trkpt>
      <trkpt lat="42.99617" lon="-0.18986">
        <ele>1446</ele>
        <time>2019-01-26T11:45:06+01:00</time>
      </trkpt>
      <trkpt lat="42.99621" lon="-0.1899">
        <ele>1448</ele>
        <time>2019-01-26T11:46:10+01:00</time>
      </trkpt>
      <trkpt lat="42.99628" lon="-0.1899">
        <ele>1451</ele>
        <time>2019-01-26T11:46:11+01:00</time>
      </trkpt>
      <trkpt lat="42.99624" lon="-0.18989">
        <ele>1449</ele>
        <time>2019-01-26T11:46:15+01:00</time>
      </trkpt>
      <trkpt lat="42.99622" lon="-0.18996">
        <ele>1450</ele>
        <time>2019-01-26T11:46:16+01:00</time>
      </trkpt>
      <trkpt lat="42.99594" lon="-0.18993">
        <ele>1438</ele>
        <time>2019-01-26T11:46:21+01:00</time>
      </trkpt>
      <trkpt lat="42.9962" lon="-0.18996">
        <ele>1449</ele>
        <time>2019-01-26T11:46:24+01:00</time>
      </trkpt>
      <trkpt lat="42.99611" lon="-0.18994">
        <ele>1445</ele>
        <time>2019-01-26T11:46:42+01:00</time>
      </trkpt>
      <trkpt lat="42.99634" lon="-0.18994">
        <ele>1454</ele>
        <time>2019-01-26T11:46:43+01:00</time>
      </trkpt>
      <trkpt lat="42.9964" lon="-0.18993">
        <ele>1456</ele>
        <time>2019-01-26T11:47:26+01:00</time>
      </trkpt>
      <trkpt lat="42.9965" lon="-0.18992">
        <ele>1456</ele>
        <time>2019-01-26T11:47:27+01:00</time>
      </trkpt>
      <trkpt lat="42.99651" lon="-0.18997">
        <ele>1456</ele>
        <time>2019-01-26T11:47:33+01:00</time>
      </trkpt>
      <trkpt lat="42.99651" lon="-0.19002">
        <ele>1456</ele>
        <time>2019-01-26T11:47:34+01:00</time>
      </trkpt>
      <trkpt lat="42.99653" lon="-0.18997">
        <ele>1456</ele>
        <time>2019-01-26T12:24:28+01:00</time>
      </trkpt>
      <trkpt lat="42.9963" lon="-0.18997">
        <ele>1452</ele>
        <time>2019-01-26T12:26:56+01:00</time>
      </trkpt>
      <trkpt lat="42.99611" lon="-0.1898">
        <ele>1443</ele>
        <time>2019-01-26T12:27:49+01:00</time>
      </trkpt>
      <trkpt lat="42.99589" lon="-0.18989">
        <ele>1436</ele>
        <time>2019-01-26T12:29:24+01:00</time>
      </trkpt>
      <trkpt lat="42.99572" lon="-0.19011">
        <ele>1429</ele>
        <time>2019-01-26T12:29:54+01:00</time>
      </trkpt>
      <trkpt lat="42.99553" lon="-0.19028">
        <ele>1422</ele>
        <time>2019-01-26T12:30:33+01:00</time>
      </trkpt>
      <trkpt lat="42.99533" lon="-0.19042">
        <ele>1415</ele>
        <time>2019-01-26T12:31:45+01:00</time>
      </trkpt>
      <trkpt lat="42.99513" lon="-0.19057">
        <ele>1409</ele>
        <time>2019-01-26T12:32:11+01:00</time>
      </trkpt>
      <trkpt lat="42.99495" lon="-0.19079">
        <ele>1403</ele>
        <time>2019-01-26T12:32:36+01:00</time>
      </trkpt>
      <trkpt lat="42.99475" lon="-0.19094">
        <ele>1398</ele>
        <time>2019-01-26T12:33:01+01:00</time>
      </trkpt>
      <trkpt lat="42.99459" lon="-0.19116">
        <ele>1394</ele>
        <time>2019-01-26T12:33:40+01:00</time>
      </trkpt>
      <trkpt lat="42.99445" lon="-0.19141">
        <ele>1391</ele>
        <time>2019-01-26T12:34:02+01:00</time>
      </trkpt>
      <trkpt lat="42.99426" lon="-0.19157">
        <ele>1388</ele>
        <time>2019-01-26T12:34:27+01:00</time>
      </trkpt>
      <trkpt lat="42.99408" lon="-0.19177">
        <ele>1385</ele>
        <time>2019-01-26T12:35:47+01:00</time>
      </trkpt>
      <trkpt lat="42.99396" lon="-0.19204">
        <ele>1383</ele>
        <time>2019-01-26T12:36:27+01:00</time>
      </trkpt>
      <trkpt lat="42.99389" lon="-0.19233">
        <ele>1382</ele>
        <time>2019-01-26T12:36:53+01:00</time>
      </trkpt>
      <trkpt lat="42.9937" lon="-0.19249">
        <ele>1379</ele>
        <time>2019-01-26T12:37:42+01:00</time>
      </trkpt>
      <trkpt lat="42.99357" lon="-0.19274">
        <ele>1374</ele>
        <time>2019-01-26T12:38:12+01:00</time>
      </trkpt>
      <trkpt lat="42.99354" lon="-0.19305">
        <ele>1370</ele>
        <time>2019-01-26T12:38:50+01:00</time>
      </trkpt>
      <trkpt lat="42.99331" lon="-0.19307">
        <ele>1364</ele>
        <time>2019-01-26T12:39:41+01:00</time>
      </trkpt>
      <trkpt lat="42.99314" lon="-0.19286">
        <ele>1362</ele>
        <time>2019-01-26T12:40:13+01:00</time>
      </trkpt>
      <trkpt lat="42.99298" lon="-0.19263">
        <ele>1360</ele>
        <time>2019-01-26T12:40:39+01:00</time>
      </trkpt>
      <trkpt lat="42.99301" lon="-0.19232">
        <ele>1356</ele>
        <time>2019-01-26T12:41:07+01:00</time>
      </trkpt>
      <trkpt lat="42.99314" lon="-0.19204">
        <ele>1355</ele>
        <time>2019-01-26T12:41:29+01:00</time>
      </trkpt>
      <trkpt lat="42.99326" lon="-0.19178">
        <ele>1355</ele>
        <time>2019-01-26T12:42:02+01:00</time>
      </trkpt>
      <trkpt lat="42.99327" lon="-0.19147">
        <ele>1350</ele>
        <time>2019-01-26T12:42:24+01:00</time>
      </trkpt>
      <trkpt lat="42.99325" lon="-0.19116">
        <ele>1345</ele>
        <time>2019-01-26T12:42:46+01:00</time>
      </trkpt>
      <trkpt lat="42.99334" lon="-0.19087">
        <ele>1345</ele>
        <time>2019-01-26T12:43:06+01:00</time>
      </trkpt>
      <trkpt lat="42.99341" lon="-0.19058">
        <ele>1344</ele>
        <time>2019-01-26T12:43:42+01:00</time>
      </trkpt>
      <trkpt lat="42.99342" lon="-0.19027">
        <ele>1339</ele>
        <time>2019-01-26T12:44:02+01:00</time>
      </trkpt>
      <trkpt lat="42.99347" lon="-0.18995">
        <ele>1338</ele>
        <time>2019-01-26T12:44:23+01:00</time>
      </trkpt>
      <trkpt lat="42.99353" lon="-0.18966">
        <ele>1338</ele>
        <time>2019-01-26T12:44:43+01:00</time>
      </trkpt>
      <trkpt lat="42.99345" lon="-0.18936">
        <ele>1335</ele>
        <time>2019-01-26T12:45:04+01:00</time>
      </trkpt>
      <trkpt lat="42.99339" lon="-0.18906">
        <ele>1331</ele>
        <time>2019-01-26T12:45:33+01:00</time>
      </trkpt>
      <trkpt lat="42.99336" lon="-0.18875">
        <ele>1328</ele>
        <time>2019-01-26T12:45:53+01:00</time>
      </trkpt>
      <trkpt lat="42.99335" lon="-0.18843">
        <ele>1327</ele>
        <time>2019-01-26T12:46:13+01:00</time>
      </trkpt>
      <trkpt lat="42.99329" lon="-0.18812">
        <ele>1324</ele>
        <time>2019-01-26T12:46:33+01:00</time>
      </trkpt>
      <trkpt lat="42.9932" lon="-0.18784">
        <ele>1321</ele>
        <time>2019-01-26T12:46:53+01:00</time>
      </trkpt>
      <trkpt lat="42.9931" lon="-0.18755">
        <ele>1319</ele>
        <time>2019-01-26T12:47:14+01:00</time>
      </trkpt>
      <trkpt lat="42.99299" lon="-0.18727">
        <ele>1314</ele>
        <time>2019-01-26T12:47:33+01:00</time>
      </trkpt>
      <trkpt lat="42.99294" lon="-0.18696">
        <ele>1312</ele>
        <time>2019-01-26T12:48:57+01:00</time>
      </trkpt>
      <trkpt lat="42.99284" lon="-0.18669">
        <ele>1308</ele>
        <time>2019-01-26T12:49:19+01:00</time>
      </trkpt>
      <trkpt lat="42.9927" lon="-0.18644">
        <ele>1304</ele>
        <time>2019-01-26T12:49:55+01:00</time>
      </trkpt>
      <trkpt lat="42.99269" lon="-0.18613">
        <ele>1304</ele>
        <time>2019-01-26T12:50:41+01:00</time>
      </trkpt>
      <trkpt lat="42.99261" lon="-0.18583">
        <ele>1300</ele>
        <time>2019-01-26T12:51:03+01:00</time>
      </trkpt>
      <trkpt lat="42.99252" lon="-0.18555">
        <ele>1296</ele>
        <time>2019-01-26T12:51:33+01:00</time>
      </trkpt>
      <trkpt lat="42.99232" lon="-0.18539">
        <ele>1290</ele>
        <time>2019-01-26T12:52:04+01:00</time>
      </trkpt>
      <trkpt lat="42.99211" lon="-0.18527">
        <ele>1286</ele>
        <time>2019-01-26T12:52:26+01:00</time>
      </trkpt>
      <trkpt lat="42.99194" lon="-0.18504">
        <ele>1280</ele>
        <time>2019-01-26T12:53:17+01:00</time>
      </trkpt>
      <trkpt lat="42.99184" lon="-0.18475">
        <ele>1276</ele>
        <time>2019-01-26T12:53:38+01:00</time>
      </trkpt>
      <trkpt lat="42.99183" lon="-0.18443">
        <ele>1273</ele>
        <time>2019-01-26T12:53:58+01:00</time>
      </trkpt>
      <trkpt lat="42.99183" lon="-0.18412">
        <ele>1269</ele>
        <time>2019-01-26T12:54:21+01:00</time>
      </trkpt>
      <trkpt lat="42.99194" lon="-0.18385">
        <ele>1266</ele>
        <time>2019-01-26T12:54:49+01:00</time>
      </trkpt>
      <trkpt lat="42.99211" lon="-0.18365">
        <ele>1264</ele>
        <time>2019-01-26T12:55:23+01:00</time>
      </trkpt>
      <trkpt lat="42.99228" lon="-0.18343">
        <ele>1262</ele>
        <time>2019-01-26T12:55:51+01:00</time>
      </trkpt>
      <trkpt lat="42.99244" lon="-0.18322">
        <ele>1259</ele>
        <time>2019-01-26T12:56:09+01:00</time>
      </trkpt>
      <trkpt lat="42.99261" lon="-0.183">
        <ele>1255</ele>
        <time>2019-01-26T12:56:33+01:00</time>
      </trkpt>
      <trkpt lat="42.99282" lon="-0.18285">
        <ele>1254</ele>
        <time>2019-01-26T12:56:58+01:00</time>
      </trkpt>
      <trkpt lat="42.99299" lon="-0.18265">
        <ele>1253</ele>
        <time>2019-01-26T12:57:16+01:00</time>
      </trkpt>
      <trkpt lat="42.99296" lon="-0.18234">
        <ele>1247</ele>
        <time>2019-01-26T12:57:42+01:00</time>
      </trkpt>
      <trkpt lat="42.99286" lon="-0.18206">
        <ele>1240</ele>
        <time>2019-01-26T12:58:01+01:00</time>
      </trkpt>
      <trkpt lat="42.99284" lon="-0.18175">
        <ele>1236</ele>
        <time>2019-01-26T12:58:49+01:00</time>
      </trkpt>
      <trkpt lat="42.99271" lon="-0.1815">
        <ele>1232</ele>
        <time>2019-01-26T12:59:15+01:00</time>
      </trkpt>
      <trkpt lat="42.99248" lon="-0.18148">
        <ele>1225</ele>
        <time>2019-01-26T12:59:38+01:00</time>
      </trkpt>
      <trkpt lat="42.99225" lon="-0.18149">
        <ele>1220</ele>
        <time>2019-01-26T13:01:47+01:00</time>
      </trkpt>
      <trkpt lat="42.99201" lon="-0.18148">
        <ele>1216</ele>
        <time>2019-01-26T13:02:08+01:00</time>
      </trkpt>
      <trkpt lat="42.99179" lon="-0.18137">
        <ele>1210</ele>
        <time>2019-01-26T13:02:32+01:00</time>
      </trkpt>
      <trkpt lat="42.99156" lon="-0.18134">
        <ele>1205</ele>
        <time>2019-01-26T13:02:53+01:00</time>
      </trkpt>
      <trkpt lat="42.99134" lon="-0.1813">
        <ele>1200</ele>
        <time>2019-01-26T13:03:15+01:00</time>
      </trkpt>
      <trkpt lat="42.9911" lon="-0.18134">
        <ele>1196</ele>
        <time>2019-01-26T13:03:36+01:00</time>
      </trkpt>
      <trkpt lat="42.99099" lon="-0.18105">
        <ele>1182</ele>
        <time>2019-01-26T13:04:35+01:00</time>
      </trkpt>
      <trkpt lat="42.99105" lon="-0.18075">
        <ele>1177</ele>
        <time>2019-01-26T13:04:57+01:00</time>
      </trkpt>
      <trkpt lat="42.99085" lon="-0.18057">
        <ele>1170</ele>
        <time>2019-01-26T13:05:35+01:00</time>
      </trkpt>
      <trkpt lat="42.99065" lon="-0.18044">
        <ele>1163</ele>
        <time>2019-01-26T13:06:06+01:00</time>
      </trkpt>
      <trkpt lat="42.99044" lon="-0.18032">
        <ele>1155</ele>
        <time>2019-01-26T13:06:38+01:00</time>
      </trkpt>
      <trkpt lat="42.99026" lon="-0.18012">
        <ele>1149</ele>
        <time>2019-01-26T13:07:00+01:00</time>
      </trkpt>
      <trkpt lat="42.99007" lon="-0.17993">
        <ele>1146</ele>
        <time>2019-01-26T13:10:23+01:00</time>
      </trkpt>
      <trkpt lat="42.99" lon="-0.17964">
        <ele>1146</ele>
        <time>2019-01-26T13:10:44+01:00</time>
      </trkpt>
      <trkpt lat="42.98982" lon="-0.17983">
        <ele>1137</ele>
        <time>2019-01-26T13:11:08+01:00</time>
      </trkpt>
      <trkpt lat="42.98961" lon="-0.17995">
        <ele>1128</ele>
        <time>2019-01-26T13:11:37+01:00</time>
      </trkpt>
      <trkpt lat="42.98939" lon="-0.17997">
        <ele>1123</ele>
        <time>2019-01-26T13:12:00+01:00</time>
      </trkpt>
      <trkpt lat="42.98916" lon="-0.17994">
        <ele>1117</ele>
        <time>2019-01-26T13:12:30+01:00</time>
      </trkpt>
      <trkpt lat="42.98893" lon="-0.17998">
        <ele>1114</ele>
        <time>2019-01-26T13:12:54+01:00</time>
      </trkpt>
      <trkpt lat="42.98871" lon="-0.17995">
        <ele>1111</ele>
        <time>2019-01-26T13:13:25+01:00</time>
      </trkpt>
      <trkpt lat="42.98848" lon="-0.1799">
        <ele>1108</ele>
        <time>2019-01-26T13:13:46+01:00</time>
      </trkpt>
      <trkpt lat="42.98825" lon="-0.17989">
        <ele>1103</ele>
        <time>2019-01-26T13:14:05+01:00</time>
      </trkpt>
      <trkpt lat="42.98801" lon="-0.17987">
        <ele>1098</ele>
        <time>2019-01-26T13:14:25+01:00</time>
      </trkpt>
      <trkpt lat="42.98778" lon="-0.1798">
        <ele>1092</ele>
        <time>2019-01-26T13:14:44+01:00</time>
      </trkpt>
      <trkpt lat="42.98755" lon="-0.17983">
        <ele>1090</ele>
        <time>2019-01-26T13:15:05+01:00</time>
      </trkpt>
      <trkpt lat="42.98747" lon="-0.17954">
        <ele>1086</ele>
        <time>2019-01-26T13:16:30+01:00</time>
      </trkpt>
      <trkpt lat="42.98739" lon="-0.17924">
        <ele>1082</ele>
        <time>2019-01-26T13:16:55+01:00</time>
      </trkpt>
      <trkpt lat="42.98734" lon="-0.17892">
        <ele>1079</ele>
        <time>2019-01-26T13:17:15+01:00</time>
      </trkpt>
      <trkpt lat="42.9873" lon="-0.17861">
        <ele>1077</ele>
        <time>2019-01-26T13:17:32+01:00</time>
      </trkpt>
      <trkpt lat="42.98721" lon="-0.17833">
        <ele>1075</ele>
        <time>2019-01-26T13:17:49+01:00</time>
      </trkpt>
      <trkpt lat="42.98711" lon="-0.17805">
        <ele>1072</ele>
        <time>2019-01-26T13:18:08+01:00</time>
      </trkpt>
      <trkpt lat="42.98699" lon="-0.17778">
        <ele>1070</ele>
        <time>2019-01-26T13:18:35+01:00</time>
      </trkpt>
      <trkpt lat="42.9868" lon="-0.17761">
        <ele>1066</ele>
        <time>2019-01-26T13:18:56+01:00</time>
      </trkpt>
      <trkpt lat="42.9866" lon="-0.17746">
        <ele>1063</ele>
        <time>2019-01-26T13:19:13+01:00</time>
      </trkpt>
      <trkpt lat="42.98638" lon="-0.17735">
        <ele>1060</ele>
        <time>2019-01-26T13:19:31+01:00</time>
      </trkpt>
      <trkpt lat="42.98618" lon="-0.17723">
        <ele>1053</ele>
        <time>2019-01-26T13:20:06+01:00</time>
      </trkpt>
      <trkpt lat="42.98595" lon="-0.17722">
        <ele>1047</ele>
        <time>2019-01-26T13:20:33+01:00</time>
      </trkpt>
      <trkpt lat="42.98572" lon="-0.17728">
        <ele>1039</ele>
        <time>2019-01-26T13:20:54+01:00</time>
      </trkpt>
      <trkpt lat="42.9855" lon="-0.17739">
        <ele>1030</ele>
        <time>2019-01-26T13:21:17+01:00</time>
      </trkpt>
      <trkpt lat="42.98528" lon="-0.1775">
        <ele>1020</ele>
        <time>2019-01-26T13:21:38+01:00</time>
      </trkpt>
      <trkpt lat="42.98507" lon="-0.17762">
        <ele>1013</ele>
        <time>2019-01-26T13:22:00+01:00</time>
      </trkpt>
      <trkpt lat="42.98487" lon="-0.17781">
        <ele>1007</ele>
        <time>2019-01-26T13:22:22+01:00</time>
      </trkpt>
      <trkpt lat="42.98465" lon="-0.17777">
        <ele>997</ele>
        <time>2019-01-26T13:22:42+01:00</time>
      </trkpt>
      <trkpt lat="42.98443" lon="-0.17767">
        <ele>989</ele>
        <time>2019-01-26T13:23:33+01:00</time>
      </trkpt>
      <trkpt lat="42.9842" lon="-0.17763">
        <ele>983</ele>
        <time>2019-01-26T13:23:52+01:00</time>
      </trkpt>
      <trkpt lat="42.98398" lon="-0.17754">
        <ele>978</ele>
        <time>2019-01-26T13:24:24+01:00</time>
      </trkpt>
      <trkpt lat="42.98374" lon="-0.17762">
        <ele>975</ele>
        <time>2019-01-26T13:24:49+01:00</time>
      </trkpt>
      <trkpt lat="42.98353" lon="-0.17749">
        <ele>969</ele>
        <time>2019-01-26T13:25:54+01:00</time>
      </trkpt>
      <trkpt lat="42.98338" lon="-0.17723">
        <ele>965</ele>
        <time>2019-01-26T13:26:19+01:00</time>
      </trkpt>
      <trkpt lat="42.98323" lon="-0.17698">
        <ele>960</ele>
        <time>2019-01-26T13:26:47+01:00</time>
      </trkpt>
      <trkpt lat="42.98309" lon="-0.17672">
        <ele>954</ele>
        <time>2019-01-26T13:27:08+01:00</time>
      </trkpt>
      <trkpt lat="42.98288" lon="-0.17661">
        <ele>950</ele>
        <time>2019-01-26T13:27:42+01:00</time>
      </trkpt>
      <trkpt lat="42.98269" lon="-0.17642">
        <ele>946</ele>
        <time>2019-01-26T13:28:02+01:00</time>
      </trkpt>
      <trkpt lat="42.98249" lon="-0.17627">
        <ele>942</ele>
        <time>2019-01-26T13:28:19+01:00</time>
      </trkpt>
      <trkpt lat="42.98225" lon="-0.17633">
        <ele>939</ele>
        <time>2019-01-26T13:28:39+01:00</time>
      </trkpt>
      <trkpt lat="42.98203" lon="-0.17627">
        <ele>934</ele>
        <time>2019-01-26T13:28:55+01:00</time>
      </trkpt>
      <trkpt lat="42.98193" lon="-0.17655">
        <ele>933</ele>
        <time>2019-01-26T13:29:16+01:00</time>
      </trkpt>
      <trkpt lat="42.98172" lon="-0.17669">
        <ele>930</ele>
        <time>2019-01-26T13:29:34+01:00</time>
      </trkpt>
      <trkpt lat="42.98156" lon="-0.17646">
        <ele>926</ele>
        <time>2019-01-26T13:29:55+01:00</time>
      </trkpt>
      <trkpt lat="42.98141" lon="-0.17621">
        <ele>922</ele>
        <time>2019-01-26T13:30:12+01:00</time>
      </trkpt>
      <trkpt lat="42.98125" lon="-0.17598">
        <ele>918</ele>
        <time>2019-01-26T13:30:28+01:00</time>
      </trkpt>
      <trkpt lat="42.98122" lon="-0.17566">
        <ele>915</ele>
        <time>2019-01-26T13:30:43+01:00</time>
      </trkpt>
      <trkpt lat="42.98123" lon="-0.17535">
        <ele>914</ele>
        <time>2019-01-26T13:30:58+01:00</time>
      </trkpt>
      <trkpt lat="42.98126" lon="-0.17504">
        <ele>914</ele>
        <time>2019-01-26T13:31:15+01:00</time>
      </trkpt>
    </trkseg>
  </trk>
</gpx>